Marysvale, Utah
Current Conditions -  °F | °C
As of 12:52 PM on Sunday 25 Jan 2015 (Local Time) from KMLF Reporting Station
Clear Clear  
Wind Chill: 43°   Ceiling: Unl
Heat Index: 49°   Visibility: 10mi
Dew Point: 31°   Wind: 15mph
Humidity: 50%   Direction: 10°N
Pressure: 30.39"   Gusts: NA
Location:  38.45°N, 112.23°W
Report Text: KMLF 251952Z AUTO 01013KT 10SM CLR 09/M01 A3039 RMK AO2 SLP286 T00941006 TSNO $
Loading
Personal Weather Stations






























Interactive Weather Map New forecast layout! Learn more

10-Day Weather Forecast

Advertisements
Track Severe Weather on mobile